Splendid Ace — 7JXH — position and weather

sailwx.info

Track history (hours):
 
Tides and Currents Weather Stations Pressure Air Temp Water Temp Dewpoint Dewpoint Depression Visibility Wind Speed Wind Dir Waves Ship Positions

Splendid Ace

Last reported at 2018-Feb-20 20:13 UTC. Time now 2018-Feb-21 03:33 UTC.
Position N 35°06' W 121°33'.

Length 198 m; draft 9.2 m.

Type: Cargo ship. MMSI: 431349000.

Date/timePositionNaut miles runAvg speedWind from/ knotsBaromVisibWave heightAir tempDewpointWater temp
2018-Feb-20 20:13N 35°06' W 121°33'315.0
2018-Feb-20 20:00N 35°03' W 121°31'815.1
2018-Feb-20 19:30N 34°56' W 121°27'915.1
2018-Feb-20 18:55N 34°49' W 121°22'614.9
2018-Feb-20 18:30N 34°43' W 121°18'715.0
2018-Feb-20 18:00N 34°37' W 121°15'714.5
2018-Feb-20 17:30N 34°30' W 121°11'714.3
2018-Feb-20 17:00N 34°23' W 121°07'714.4
2018-Feb-20 16:30N 34°17' W 121°03'714.4
2018-Feb-20 16:00N 34°11' W 120°59'714.0
2018-Feb-20 15:30N 34°04' W 120°56'714.1
2018-Feb-20 15:00N 33°59' W 120°50'714.2
2018-Feb-20 14:30N 33°55' W 120°43'714.0
2018-Feb-20 14:00N 33°52' W 120°35'714.1
2018-Feb-20 13:30N 33°49' W 120°28'714.8
2018-Feb-20 13:00N 33°45' W 120°20'715.0
2018-Feb-20 12:30N 33°43' W 120°12'816.2
2018-Feb-20 12:00N 33°42' W 120°02'816.2
2018-Feb-20 11:30N 33°42' W 119°52'817.3
2018-Feb-20 11:00N 33°42' W 119°42'917.3
2018-Feb-20 10:29N 33°41' W 119°31'817.4
2018-Feb-20 10:00N 33°41' W 119°21'916.7
2018-Feb-20 09:27N 33°41' W 119°10'612.3
2018-Feb-20 09:00N 33°40' W 119°03'611.6
2018-Feb-20 08:30N 33°40' W 118°56'611.7
2018-Feb-20 08:00N 33°40' W 118°49'611.7
2018-Feb-20 07:30N 33°39' W 118°42'611.4
2018-Feb-20 07:00N 33°39' W 118°35'611.8
2018-Feb-20 06:29N 33°38' W 118°28'611.5
2018-Feb-20 05:58N 33°38' W 118°21'511.6
2018-Feb-20 05:30N 33°38' W 118°14'5 9.2
2018-Feb-20 05:00N 33°42' W 118°11'3 5.4
2018-Feb-20 04:30N 33°45' W 118°13'0 0.2
2018-Feb-20 04:00N 33°45' W 118°13'0 0.0
2018-Feb-20 03:30N 33°45' W 118°13'0 0.0
2018-Feb-20 03:00N 33°45' W 118°13'0 0.0
2018-Feb-20 02:30N 33°45' W 118°13'0 0.0
2018-Feb-20 02:00N 33°45' W 118°13'0 0.0
2018-Feb-20 01:30N 33°45' W 118°13'0 0.0
2018-Feb-20 01:00N 33°45' W 118°13'0 0.0
2018-Feb-20 00:30N 33°45' W 118°13'0 0.0
2018-Feb-19 23:57N 33°45' W 118°13'0 0.0
2018-Feb-19 23:30N 33°45' W 118°13'0 0.0
2018-Feb-19 23:00N 33°45' W 118°13'0 0.0
2018-Feb-19 22:30N 33°45' W 118°13'0 0.0
2018-Feb-19 22:00N 33°45' W 118°13'0 0.0
2018-Feb-19 21:24N 33°45' W 118°13'0 0.0
2018-Feb-19 21:00N 33°45' W 118°13'0 0.0
2018-Feb-19 20:30N 33°45' W 118°13'0 0.0
2018-Feb-19 20:00N 33°45' W 118°13'0 0.0
2018-Feb-19 19:30N 33°45' W 118°13'0 0.0
2018-Feb-19 19:00N 33°45' W 118°13'0 0.0
2018-Feb-19 18:30N 33°45' W 118°13'0 0.0
2018-Feb-19 17:57N 33°45' W 118°13'0 0.0
2018-Feb-19 17:30N 33°45' W 118°13'0 0.0
2018-Feb-19 17:00N 33°45' W 118°13'0 0.0
2018-Feb-19 16:30N 33°45' W 118°13'0 0.0
2018-Feb-19 16:00N 33°45' W 118°13'0 0.0
2018-Feb-19 15:30N 33°45' W 118°13'0 0.0
2018-Feb-19 15:00N 33°45' W 118°13'0 0.0
2018-Feb-19 14:30N 33°45' W 118°13'0 1.0
2018-Feb-19 14:00N 33°44' W 118°12'3 6.0
2018-Feb-19 13:31N 33°42' W 118°11'3 6.7
2018-Feb-19 13:00N 33°38' W 118°10'23 9.9
2018-Feb-19 10:39N 33°18' W 117°57'211.7
2018-Feb-19 10:30N 33°17' W 117°55'2 4.3
2018-Feb-19 10:00N 33°16' W 117°53'1 1.6
2018-Feb-19 09:27N 33°16' W 117°54'1 1.5
2018-Feb-19 09:00N 33°15' W 117°54'611.1
2018-Feb-19 08:30N 33°10' W 117°55'611.9
2018-Feb-19 08:00N 33°04' W 117°55'612.1
2018-Feb-19 07:30N 32°58' W 117°53'612.2
2018-Feb-19 07:00N 32°52' W 117°51'612.2
2018-Feb-19 06:30N 32°46' W 117°49'612.7
2018-Feb-19 06:00N 32°40' W 117°47'812.7
2018-Feb-19 05:22N 32°33' W 117°44'512.6
2018-Feb-19 05:00N 32°28' W 117°42'4312.6
2018-Feb-19 01:37N 31°48' W 117°26'212.6
2018-Feb-19 01:30N 31°46' W 117°25'3612.7
2018-Feb-18 22:40N 31°12' W 117°12'212.6
2018-Feb-18 22:29N 31°10' W 117°11'612.7
2018-Feb-18 22:00N 31°04' W 117°09'812.7
2018-Feb-18 21:22N 30°57' W 117°06'13614.5
2018-Feb-18 11:58N 28°48' W 116°15'816.5
2018-Feb-18 11:29N 28°41' W 116°12'816.6
2018-Feb-18 11:00N 28°33' W 116°09'916.6
2018-Feb-18 10:28N 28°25' W 116°06'816.8
2018-Feb-18 10:00N 28°17' W 116°03'  
2018-Feb-11 18:01N 09°11' W 079°52'0 9.0
2018-Feb-11 17:59N 09°11' W 079°52'4 8.4
2018-Feb-11 17:30N 09°13' W 079°55'2 4.7
2018-Feb-11 17:00N 09°15' W 079°55'0 0.4
2018-Feb-11 16:30N 09°15' W 079°55'0 0.3
2018-Feb-11 16:00N 09°15' W 079°55'1 2.5
2018-Feb-11 15:30N 09°16' W 079°55'0 0.7
2018-Feb-11 15:00N 09°17' W 079°55'0 0.5
2018-Feb-11 14:30N 09°17' W 079°55'0 0.4
2018-Feb-11 14:00N 09°17' W 079°55'2 3.6
2018-Feb-11 13:30N 09°19' W 079°55'3 6.5
2018-Feb-11 13:00N 09°22' W 079°55'3 6.1
2018-Feb-11 12:30N 09°25' W 079°56'0 0.6
2018-Feb-11 11:55N 09°25' W 079°56'0 0.0
2018-Feb-11 11:28N 09°25' W 079°56'0 0.0
2018-Feb-11 10:58N 09°25' W 079°56'0 0.0
2018-Feb-11 10:28N 09°25' W 079°56'0 0.0
2018-Feb-11 09:55N 09°25' W 079°56'0 0.0
2018-Feb-11 09:28N 09°25' W 079°56'0 0.0
2018-Feb-11 08:58N 09°25' W 079°56'0 0.0
2018-Feb-11 08:25N 09°25' W 079°56'0 0.0
2018-Feb-11 07:58N 09°25' W 079°56'0 0.0
2018-Feb-11 07:28N 09°25' W 079°56'0 0.0
2018-Feb-11 06:49N 09°25' W 079°56'0 0.0
2018-Feb-11 06:28N 09°25' W 079°56'0 0.0
2018-Feb-11 05:58N 09°25' W 079°56'0 0.0
2018-Feb-11 05:25N 09°25' W 079°56'0 0.0
2018-Feb-11 04:58N 09°25' W 079°56'0 0.0
2018-Feb-11 04:19N 09°25' W 079°56'0 0.1
2018-Feb-11 03:58N 09°25' W 079°56'0 0.0
2018-Feb-11 03:28N 09°25' W 079°56'0 0.0
2018-Feb-11 02:58N 09°25' W 079°56'0 0.0
2018-Feb-11 02:25N 09°25' W 079°56'0 0.0
2018-Feb-11 01:43N 09°25' W 079°56'0 0.0
2018-Feb-11 01:28N 09°25' W 079°56'0 0.0
2018-Feb-11 00:58N 09°25' W 079°56'0 0.1
2018-Feb-11 00:28N 09°25' W 079°56'0 0.0
2018-Feb-10 23:58N 09°25' W 079°56'0 0.0
2018-Feb-10 23:28N 09°25' W 079°56'0 0.1
2018-Feb-10 22:58N 09°25' W 079°56'0 0.0
2018-Feb-10 22:28N 09°25' W 079°56'0 0.1
2018-Feb-10 21:58N 09°25' W 079°56'0 0.1
2018-Feb-10 21:28N 09°25' W 079°56'0 0.1
2018-Feb-10 20:52N 09°25' W 079°56'0 0.0
2018-Feb-10 20:28N 09°25' W 079°56'  
Track history (hours):
 
Tides and Currents Weather Stations Pressure Air Temp Water Temp Dewpoint Dewpoint Depression Visibility Wind Speed Wind Dir Waves Ship Positions

Splendid Ace

Last reported at 2018-Feb-20 20:13 UTC. Time now 2018-Feb-21 03:33 UTC.
Position N 35°06' W 121°33'.

Length 198 m; draft 9.2 m.

Type: Cargo ship. MMSI: 431349000.

Date/timePositionNaut miles runAvg speedWind from/ knotsBaromVisibWave heightAir tempDewpointWater temp
2018-Feb-20 20:13N 35°06' W 121°33'315.0
2018-Feb-20 20:00N 35°03' W 121°31'815.1
2018-Feb-20 19:30N 34°56' W 121°27'915.1
2018-Feb-20 18:55N 34°49' W 121°22'614.9
2018-Feb-20 18:30N 34°43' W 121°18'715.0
2018-Feb-20 18:00N 34°37' W 121°15'714.5
2018-Feb-20 17:30N 34°30' W 121°11'714.3
2018-Feb-20 17:00N 34°23' W 121°07'714.4
2018-Feb-20 16:30N 34°17' W 121°03'714.4
2018-Feb-20 16:00N 34°11' W 120°59'714.0
2018-Feb-20 15:30N 34°04' W 120°56'714.1
2018-Feb-20 15:00N 33°59' W 120°50'714.2
2018-Feb-20 14:30N 33°55' W 120°43'714.0
2018-Feb-20 14:00N 33°52' W 120°35'714.1
2018-Feb-20 13:30N 33°49' W 120°28'714.8
2018-Feb-20 13:00N 33°45' W 120°20'715.0
2018-Feb-20 12:30N 33°43' W 120°12'816.2
2018-Feb-20 12:00N 33°42' W 120°02'816.2
2018-Feb-20 11:30N 33°42' W 119°52'817.3
2018-Feb-20 11:00N 33°42' W 119°42'917.3
2018-Feb-20 10:29N 33°41' W 119°31'817.4
2018-Feb-20 10:00N 33°41' W 119°21'916.7
2018-Feb-20 09:27N 33°41' W 119°10'612.3
2018-Feb-20 09:00N 33°40' W 119°03'611.6
2018-Feb-20 08:30N 33°40' W 118°56'611.7
2018-Feb-20 08:00N 33°40' W 118°49'611.7
2018-Feb-20 07:30N 33°39' W 118°42'611.4
2018-Feb-20 07:00N 33°39' W 118°35'611.8
2018-Feb-20 06:29N 33°38' W 118°28'611.5
2018-Feb-20 05:58N 33°38' W 118°21'511.6
2018-Feb-20 05:30N 33°38' W 118°14'5 9.2
2018-Feb-20 05:00N 33°42' W 118°11'3 5.4
2018-Feb-20 04:30N 33°45' W 118°13'0 0.2
2018-Feb-20 04:00N 33°45' W 118°13'0 0.0
2018-Feb-20 03:30N 33°45' W 118°13'0 0.0
2018-Feb-20 03:00N 33°45' W 118°13'0 0.0
2018-Feb-20 02:30N 33°45' W 118°13'0 0.0
2018-Feb-20 02:00N 33°45' W 118°13'0 0.0
2018-Feb-20 01:30N 33°45' W 118°13'0 0.0
2018-Feb-20 01:00N 33°45' W 118°13'0 0.0
2018-Feb-20 00:30N 33°45' W 118°13'0 0.0
2018-Feb-19 23:57N 33°45' W 118°13'0 0.0
2018-Feb-19 23:30N 33°45' W 118°13'0 0.0
2018-Feb-19 23:00N 33°45' W 118°13'0 0.0
2018-Feb-19 22:30N 33°45' W 118°13'0 0.0
2018-Feb-19 22:00N 33°45' W 118°13'0 0.0
2018-Feb-19 21:24N 33°45' W 118°13'0 0.0
2018-Feb-19 21:00N 33°45' W 118°13'0 0.0
2018-Feb-19 20:30N 33°45' W 118°13'0 0.0
2018-Feb-19 20:00N 33°45' W 118°13'0 0.0
2018-Feb-19 19:30N 33°45' W 118°13'0 0.0
2018-Feb-19 19:00N 33°45' W 118°13'0 0.0
2018-Feb-19 18:30N 33°45' W 118°13'0 0.0
2018-Feb-19 17:57N 33°45' W 118°13'0 0.0
2018-Feb-19 17:30N 33°45' W 118°13'0 0.0
2018-Feb-19 17:00N 33°45' W 118°13'0 0.0
2018-Feb-19 16:30N 33°45' W 118°13'0 0.0
2018-Feb-19 16:00N 33°45' W 118°13'0 0.0
2018-Feb-19 15:30N 33°45' W 118°13'0 0.0
2018-Feb-19 15:00N 33°45' W 118°13'0 0.0
2018-Feb-19 14:30N 33°45' W 118°13'0 1.0
2018-Feb-19 14:00N 33°44' W 118°12'3 6.0
2018-Feb-19 13:31N 33°42' W 118°11'3 6.7
2018-Feb-19 13:00N 33°38' W 118°10'23 9.9
2018-Feb-19 10:39N 33°18' W 117°57'211.7
2018-Feb-19 10:30N 33°17' W 117°55'2 4.3
2018-Feb-19 10:00N 33°16' W 117°53'1 1.6
2018-Feb-19 09:27N 33°16' W 117°54'1 1.5
2018-Feb-19 09:00N 33°15' W 117°54'611.1
2018-Feb-19 08:30N 33°10' W 117°55'611.9
2018-Feb-19 08:00N 33°04' W 117°55'612.1
2018-Feb-19 07:30N 32°58' W 117°53'612.2
2018-Feb-19 07:00N 32°52' W 117°51'612.2
2018-Feb-19 06:30N 32°46' W 117°49'612.7
2018-Feb-19 06:00N 32°40' W 117°47'812.7
2018-Feb-19 05:22N 32°33' W 117°44'512.6
2018-Feb-19 05:00N 32°28' W 117°42'4312.6
2018-Feb-19 01:37N 31°48' W 117°26'212.6
2018-Feb-19 01:30N 31°46' W 117°25'3612.7
2018-Feb-18 22:40N 31°12' W 117°12'212.6
2018-Feb-18 22:29N 31°10' W 117°11'612.7
2018-Feb-18 22:00N 31°04' W 117°09'812.7
2018-Feb-18 21:22N 30°57' W 117°06'13614.5
2018-Feb-18 11:58N 28°48' W 116°15'816.5
2018-Feb-18 11:29N 28°41' W 116°12'816.6
2018-Feb-18 11:00N 28°33' W 116°09'916.6
2018-Feb-18 10:28N 28°25' W 116°06'816.8
2018-Feb-18 10:00N 28°17' W 116°03'  
2018-Feb-11 18:01N 09°11' W 079°52'0 9.0
2018-Feb-11 17:59N 09°11' W 079°52'4 8.4
2018-Feb-11 17:30N 09°13' W 079°55'2 4.7
2018-Feb-11 17:00N 09°15' W 079°55'0 0.4
2018-Feb-11 16:30N 09°15' W 079°55'0 0.3
2018-Feb-11 16:00N 09°15' W 079°55'1 2.5
2018-Feb-11 15:30N 09°16' W 079°55'0 0.7
2018-Feb-11 15:00N 09°17' W 079°55'0 0.5
2018-Feb-11 14:30N 09°17' W 079°55'0 0.4
2018-Feb-11 14:00N 09°17' W 079°55'2 3.6
2018-Feb-11 13:30N 09°19' W 079°55'3 6.5
2018-Feb-11 13:00N 09°22' W 079°55'3 6.1
2018-Feb-11 12:30N 09°25' W 079°56'0 0.6
2018-Feb-11 11:55N 09°25' W 079°56'0 0.0
2018-Feb-11 11:28N 09°25' W 079°56'0 0.0
2018-Feb-11 10:58N 09°25' W 079°56'0 0.0
2018-Feb-11 10:28N 09°25' W 079°56'0 0.0
2018-Feb-11 09:55N 09°25' W 079°56'0 0.0
2018-Feb-11 09:28N 09°25' W 079°56'0 0.0
2018-Feb-11 08:58N 09°25' W 079°56'0 0.0
2018-Feb-11 08:25N 09°25' W 079°56'0 0.0
2018-Feb-11 07:58N 09°25' W 079°56'0 0.0
2018-Feb-11 07:28N 09°25' W 079°56'0 0.0
2018-Feb-11 06:49N 09°25' W 079°56'0 0.0
2018-Feb-11 06:28N 09°25' W 079°56'0 0.0
2018-Feb-11 05:58N 09°25' W 079°56'0 0.0
2018-Feb-11 05:25N 09°25' W 079°56'0 0.0
2018-Feb-11 04:58N 09°25' W 079°56'0 0.0
2018-Feb-11 04:19N 09°25' W 079°56'0 0.1
2018-Feb-11 03:58N 09°25' W 079°56'0 0.0
2018-Feb-11 03:28N 09°25' W 079°56'0 0.0
2018-Feb-11 02:58N 09°25' W 079°56'0 0.0
2018-Feb-11 02:25N 09°25' W 079°56'0 0.0
2018-Feb-11 01:43N 09°25' W 079°56'0 0.0
2018-Feb-11 01:28N 09°25' W 079°56'0 0.0
2018-Feb-11 00:58N 09°25' W 079°56'0 0.1
2018-Feb-11 00:28N 09°25' W 079°56'0 0.0
2018-Feb-10 23:58N 09°25' W 079°56'0 0.0
2018-Feb-10 23:28N 09°25' W 079°56'0 0.1
2018-Feb-10 22:58N 09°25' W 079°56'0 0.0
2018-Feb-10 22:28N 09°25' W 079°56'0 0.1
2018-Feb-10 21:58N 09°25' W 079°56'0 0.1
2018-Feb-10 21:28N 09°25' W 079°56'0 0.1
2018-Feb-10 20:52N 09°25' W 079°56'0 0.0
2018-Feb-10 20:28N 09°25' W 079°56'  

Dump ship's entire track history